sensor_id;sensor_type;location;lat;lon;timestamp;P1;durP1;ratioP1;P2;durP2;ratioP2
16662;SDS011;8445;51.270;9.434;2023-08-07T00:00:57;9.18;;;8.57;;
16662;SDS011;8445;51.270;9.434;2023-08-07T00:03:22;9.98;;;8.98;;
16662;SDS011;8445;51.270;9.434;2023-08-07T00:05:48;9.00;;;8.60;;
16662;SDS011;8445;51.270;9.434;2023-08-07T00:08:16;8.80;;;8.40;;
16662;SDS011;8445;51.270;9.434;2023-08-07T00:10:43;9.15;;;8.55;;
16662;SDS011;8445;51.270;9.434;2023-08-07T00:13:09;9.23;;;8.70;;
16662;SDS011;8445;51.270;9.434;2023-08-07T00:15:37;9.23;;;8.73;;
16662;SDS011;8445;51.270;9.434;2023-08-07T00:18:03;9.05;;;8.52;;
16662;SDS011;8445;51.270;9.434;2023-08-07T00:20:29;10.30;;;9.43;;
16662;SDS011;8445;51.270;9.434;2023-08-07T00:22:55;9.27;;;8.75;;
16662;SDS011;8445;51.270;9.434;2023-08-07T00:25:21;8.90;;;8.48;;
16662;SDS011;8445;51.270;9.434;2023-08-07T00:27:47;8.90;;;8.15;;
16662;SDS011;8445;51.270;9.434;2023-08-07T00:30:13;8.75;;;8.25;;
16662;SDS011;8445;51.270;9.434;2023-08-07T00:32:39;9.55;;;8.90;;
16662;SDS011;8445;51.270;9.434;2023-08-07T00:35:05;9.60;;;8.98;;
16662;SDS011;8445;51.270;9.434;2023-08-07T00:37:33;9.23;;;8.63;;
16662;SDS011;8445;51.270;9.434;2023-08-07T00:40:01;9.25;;;8.63;;
16662;SDS011;8445;51.270;9.434;2023-08-07T00:42:28;9.27;;;8.57;;
16662;SDS011;8445;51.270;9.434;2023-08-07T00:44:53;9.27;;;8.77;;
16662;SDS011;8445;51.270;9.434;2023-08-07T00:47:19;9.00;;;8.50;;
16662;SDS011;8445;51.270;9.434;2023-08-07T00:49:46;8.80;;;8.30;;
16662;SDS011;8445;51.270;9.434;2023-08-07T00:52:13;9.13;;;8.40;;
16662;SDS011;8445;51.270;9.434;2023-08-07T00:54:40;8.82;;;8.30;;
16662;SDS011;8445;51.270;9.434;2023-08-07T00:57:10;8.88;;;8.38;;
16662;SDS011;8445;51.270;9.434;2023-08-07T00:59:40;8.75;;;8.30;;
16662;SDS011;8445;51.270;9.434;2023-08-07T01:02:07;8.50;;;8.10;;
16662;SDS011;8445;51.270;9.434;2023-08-07T01:04:34;8.57;;;8.18;;
16662;SDS011;8445;51.270;9.434;2023-08-07T01:07:01;8.50;;;8.00;;
16662;SDS011;8445;51.270;9.434;2023-08-07T01:09:27;8.60;;;8.20;;
16662;SDS011;8445;51.270;9.434;2023-08-07T01:14:58;8.02;;;7.72;;
16662;SDS011;8445;51.270;9.434;2023-08-07T01:17:39;8.13;;;7.75;;
16662;SDS011;8445;51.270;9.434;2023-08-07T01:20:08;8.25;;;7.75;;
16662;SDS011;8445;51.270;9.434;2023-08-07T01:22:34;8.40;;;8.00;;
16662;SDS011;8445;51.270;9.434;2023-08-07T01:25:00;8.43;;;7.93;;
16662;SDS011;8445;51.270;9.434;2023-08-07T01:27:36;8.30;;;7.90;;
16662;SDS011;8445;51.270;9.434;2023-08-07T01:35:35;7.93;;;7.53;;
16662;SDS011;8445;51.270;9.434;2023-08-07T01:38:07;8.23;;;7.72;;
16662;SDS011;8445;51.270;9.434;2023-08-07T01:40:36;7.97;;;7.57;;
16662;SDS011;8445;51.270;9.434;2023-08-07T01:43:04;7.35;;;6.93;;
16662;SDS011;8445;51.270;9.434;2023-08-07T01:45:31;7.78;;;7.30;;
16662;SDS011;8445;51.270;9.434;2023-08-07T01:47:56;7.85;;;7.50;;
16662;SDS011;8445;51.270;9.434;2023-08-07T01:50:23;7.68;;;7.38;;
16662;SDS011;8445;51.270;9.434;2023-08-07T01:52:49;7.80;;;7.40;;
16662;SDS011;8445;51.270;9.434;2023-08-07T01:55:16;7.70;;;7.40;;
16662;SDS011;8445;51.270;9.434;2023-08-07T01:57:51;7.80;;;7.40;;
16662;SDS011;8445;51.270;9.434;2023-08-07T02:00:17;8.15;;;7.75;;
16662;SDS011;8445;51.270;9.434;2023-08-07T02:02:44;7.70;;;7.20;;
16662;SDS011;8445;51.270;9.434;2023-08-07T02:05:11;7.60;;;7.30;;
16662;SDS011;8445;51.270;9.434;2023-08-07T02:07:39;7.82;;;7.50;;
16662;SDS011;8445;51.270;9.434;2023-08-07T02:10:06;7.80;;;7.50;;
16662;SDS011;8445;51.270;9.434;2023-08-07T02:12:32;7.18;;;6.88;;
16662;SDS011;8445;51.270;9.434;2023-08-07T02:14:58;7.40;;;7.10;;
16662;SDS011;8445;51.270;9.434;2023-08-07T02:17:27;8.40;;;7.70;;
16662;SDS011;8445;51.270;9.434;2023-08-07T02:19:55;7.35;;;7.05;;
16662;SDS011;8445;51.270;9.434;2023-08-07T02:22:21;7.53;;;7.13;;
16662;SDS011;8445;51.270;9.434;2023-08-07T02:24:48;7.90;;;7.50;;
16662;SDS011;8445;51.270;9.434;2023-08-07T02:27:14;8.05;;;7.65;;
16662;SDS011;8445;51.270;9.434;2023-08-07T02:29:40;8.05;;;7.65;;
16662;SDS011;8445;51.270;9.434;2023-08-07T02:32:06;8.60;;;8.20;;
16662;SDS011;8445;51.270;9.434;2023-08-07T02:34:32;8.10;;;7.70;;
16662;SDS011;8445;51.270;9.434;2023-08-07T02:36:58;8.68;;;8.02;;
16662;SDS011;8445;51.270;9.434;2023-08-07T02:39:25;7.85;;;7.55;;
16662;SDS011;8445;51.270;9.434;2023-08-07T02:41:51;8.10;;;7.70;;
16662;SDS011;8445;51.270;9.434;2023-08-07T02:44:17;7.97;;;7.50;;
16662;SDS011;8445;51.270;9.434;2023-08-07T02:46:43;8.10;;;7.70;;
16662;SDS011;8445;51.270;9.434;2023-08-07T02:49:09;8.35;;;7.65;;
16662;SDS011;8445;51.270;9.434;2023-08-07T02:51:36;8.20;;;7.70;;
16662;SDS011;8445;51.270;9.434;2023-08-07T02:54:02;7.93;;;7.50;;
16662;SDS011;8445;51.270;9.434;2023-08-07T02:56:28;7.63;;;7.30;;
16662;SDS011;8445;51.270;9.434;2023-08-07T02:58:54;8.15;;;7.75;;
16662;SDS011;8445;51.270;9.434;2023-08-07T03:01:20;7.80;;;7.45;;
16662;SDS011;8445;51.270;9.434;2023-08-07T03:03:46;7.55;;;7.25;;
16662;SDS011;8445;51.270;9.434;2023-08-07T03:06:12;7.78;;;7.47;;
16662;SDS011;8445;51.270;9.434;2023-08-07T03:08:38;7.63;;;7.32;;
16662;SDS011;8445;51.270;9.434;2023-08-07T03:11:04;8.50;;;8.00;;
16662;SDS011;8445;51.270;9.434;2023-08-07T03:13:30;8.00;;;7.70;;
16662;SDS011;8445;51.270;9.434;2023-08-07T03:16:03;7.80;;;7.50;;
16662;SDS011;8445;51.270;9.434;2023-08-07T03:18:31;7.93;;;7.50;;
16662;SDS011;8445;51.270;9.434;2023-08-07T03:20:58;8.70;;;8.20;;
16662;SDS011;8445;51.270;9.434;2023-08-07T03:23:25;7.75;;;7.45;;
16662;SDS011;8445;51.270;9.434;2023-08-07T03:26:04;7.60;;;7.30;;
16662;SDS011;8445;51.270;9.434;2023-08-07T03:28:36;7.82;;;7.30;;
16662;SDS011;8445;51.270;9.434;2023-08-07T03:31:03;7.18;;;6.88;;
16662;SDS011;8445;51.270;9.434;2023-08-07T03:33:31;7.20;;;6.90;;
16662;SDS011;8445;51.270;9.434;2023-08-07T03:35:58;7.55;;;7.15;;
16662;SDS011;8445;51.270;9.434;2023-08-07T03:38:24;7.60;;;7.10;;
16662;SDS011;8445;51.270;9.434;2023-08-07T03:40:52;7.70;;;7.30;;
16662;SDS011;8445;51.270;9.434;2023-08-07T03:43:18;7.25;;;6.82;;
16662;SDS011;8445;51.270;9.434;2023-08-07T03:45:44;7.20;;;6.90;;
16662;SDS011;8445;51.270;9.434;2023-08-07T03:48:10;7.47;;;7.10;;
16662;SDS011;8445;51.270;9.434;2023-08-07T03:50:36;7.90;;;7.60;;
16662;SDS011;8445;51.270;9.434;2023-08-07T03:53:05;7.82;;;7.32;;
16662;SDS011;8445;51.270;9.434;2023-08-07T03:55:36;8.48;;;7.60;;
16662;SDS011;8445;51.270;9.434;2023-08-07T03:58:02;8.20;;;7.70;;
16662;SDS011;8445;51.270;9.434;2023-08-07T04:00:28;7.47;;;7.07;;
16662;SDS011;8445;51.270;9.434;2023-08-07T04:02:54;7.50;;;7.20;;
16662;SDS011;8445;51.270;9.434;2023-08-07T04:05:20;7.13;;;6.82;;
16662;SDS011;8445;51.270;9.434;2023-08-07T04:07:46;7.38;;;6.97;;
16662;SDS011;8445;51.270;9.434;2023-08-07T04:10:12;7.00;;;6.70;;
16662;SDS011;8445;51.270;9.434;2023-08-07T04:12:38;7.30;;;7.00;;
16662;SDS011;8445;51.270;9.434;2023-08-07T04:15:04;7.90;;;7.45;;
16662;SDS011;8445;51.270;9.434;2023-08-07T04:17:31;7.70;;;7.25;;
16662;SDS011;8445;51.270;9.434;2023-08-07T04:19:57;7.25;;;6.85;;
16662;SDS011;8445;51.270;9.434;2023-08-07T04:22:23;9.50;;;7.40;;
16662;SDS011;8445;51.270;9.434;2023-08-07T04:24:49;7.63;;;7.22;;
16662;SDS011;8445;51.270;9.434;2023-08-07T04:27:15;7.50;;;7.10;;
16662;SDS011;8445;51.270;9.434;2023-08-07T04:29:41;7.60;;;7.10;;
16662;SDS011;8445;51.270;9.434;2023-08-07T04:32:07;7.03;;;6.63;;
16662;SDS011;8445;51.270;9.434;2023-08-07T04:34:33;6.88;;;6.50;;
16662;SDS011;8445;51.270;9.434;2023-08-07T04:37:00;7.13;;;6.68;;
16662;SDS011;8445;51.270;9.434;2023-08-07T04:39:26;7.57;;;7.05;;
16662;SDS011;8445;51.270;9.434;2023-08-07T04:41:52;6.80;;;6.40;;
16662;SDS011;8445;51.270;9.434;2023-08-07T04:44:18;7.10;;;6.60;;
16662;SDS011;8445;51.270;9.434;2023-08-07T04:46:44;7.10;;;6.80;;
16662;SDS011;8445;51.270;9.434;2023-08-07T04:49:10;7.00;;;6.50;;
16662;SDS011;8445;51.270;9.434;2023-08-07T04:51:36;9.60;;;6.80;;
16662;SDS011;8445;51.270;9.434;2023-08-07T04:54:02;6.40;;;6.10;;
16662;SDS011;8445;51.270;9.434;2023-08-07T04:56:28;6.75;;;6.30;;
16662;SDS011;8445;51.270;9.434;2023-08-07T04:58:54;6.30;;;6.03;;
16662;SDS011;8445;51.270;9.434;2023-08-07T05:01:19;6.50;;;6.00;;
16662;SDS011;8445;51.270;9.434;2023-08-07T05:03:46;5.97;;;5.78;;
16662;SDS011;8445;51.270;9.434;2023-08-07T05:06:11;6.20;;;5.90;;
16662;SDS011;8445;51.270;9.434;2023-08-07T05:08:37;6.45;;;6.05;;
16662;SDS011;8445;51.270;9.434;2023-08-07T05:11:03;6.53;;;6.22;;
16662;SDS011;8445;51.270;9.434;2023-08-07T05:13:29;6.40;;;6.20;;
16662;SDS011;8445;51.270;9.434;2023-08-07T05:15:55;6.40;;;6.07;;
16662;SDS011;8445;51.270;9.434;2023-08-07T05:18:21;6.50;;;6.20;;
16662;SDS011;8445;51.270;9.434;2023-08-07T05:20:47;6.20;;;6.00;;
16662;SDS011;8445;51.270;9.434;2023-08-07T05:23:13;7.57;;;6.60;;
16662;SDS011;8445;51.270;9.434;2023-08-07T05:25:38;6.53;;;6.22;;
16662;SDS011;8445;51.270;9.434;2023-08-07T05:28:04;6.60;;;6.30;;
16662;SDS011;8445;51.270;9.434;2023-08-07T05:30:30;6.07;;;5.82;;
16662;SDS011;8445;51.270;9.434;2023-08-07T05:32:57;6.50;;;6.10;;
16662;SDS011;8445;51.270;9.434;2023-08-07T05:35:25;5.95;;;5.75;;
16662;SDS011;8445;51.270;9.434;2023-08-07T05:37:51;5.93;;;5.72;;
16662;SDS011;8445;51.270;9.434;2023-08-07T05:40:17;5.65;;;5.40;;
16662;SDS011;8445;51.270;9.434;2023-08-07T05:42:43;6.03;;;5.72;;
16662;SDS011;8445;51.270;9.434;2023-08-07T05:45:09;5.82;;;5.63;;
16662;SDS011;8445;51.270;9.434;2023-08-07T05:47:35;6.05;;;5.78;;
16662;SDS011;8445;51.270;9.434;2023-08-07T05:50:01;5.78;;;5.57;;
16662;SDS011;8445;51.270;9.434;2023-08-07T05:52:29;6.10;;;5.70;;
16662;SDS011;8445;51.270;9.434;2023-08-07T05:54:55;6.20;;;5.90;;
16662;SDS011;8445;51.270;9.434;2023-08-07T05:57:21;5.68;;;5.47;;
16662;SDS011;8445;51.270;9.434;2023-08-07T05:59:46;5.78;;;5.47;;
16662;SDS011;8445;51.270;9.434;2023-08-07T06:02:12;5.70;;;5.50;;
16662;SDS011;8445;51.270;9.434;2023-08-07T06:04:38;5.72;;;5.43;;
16662;SDS011;8445;51.270;9.434;2023-08-07T06:07:07;5.70;;;5.40;;
16662;SDS011;8445;51.270;9.434;2023-08-07T06:09:33;5.57;;;5.38;;
16662;SDS011;8445;51.270;9.434;2023-08-07T06:11:59;5.40;;;5.10;;
16662;SDS011;8445;51.270;9.434;2023-08-07T06:14:25;5.60;;;5.30;;
16662;SDS011;8445;51.270;9.434;2023-08-07T06:16:52;5.60;;;5.40;;
16662;SDS011;8445;51.270;9.434;2023-08-07T06:19:20;5.78;;;5.47;;
16662;SDS011;8445;51.270;9.434;2023-08-07T06:21:49;5.68;;;5.32;;
16662;SDS011;8445;51.270;9.434;2023-08-07T06:24:17;5.70;;;5.50;;
16662;SDS011;8445;51.270;9.434;2023-08-07T06:26:44;5.88;;;5.57;;
16662;SDS011;8445;51.270;9.434;2023-08-07T06:29:10;5.80;;;5.60;;
16662;SDS011;8445;51.270;9.434;2023-08-07T06:31:36;5.82;;;5.63;;
16662;SDS011;8445;51.270;9.434;2023-08-07T06:34:02;5.82;;;5.55;;
16662;SDS011;8445;51.270;9.434;2023-08-07T06:36:28;5.40;;;5.20;;
16662;SDS011;8445;51.270;9.434;2023-08-07T06:38:54;5.40;;;5.20;;
16662;SDS011;8445;51.270;9.434;2023-08-07T06:41:20;5.60;;;5.40;;
16662;SDS011;8445;51.270;9.434;2023-08-07T06:43:46;6.10;;;5.70;;
16662;SDS011;8445;51.270;9.434;2023-08-07T06:46:15;5.68;;;5.38;;
16662;SDS011;8445;51.270;9.434;2023-08-07T06:48:40;5.70;;;5.50;;
16662;SDS011;8445;51.270;9.434;2023-08-07T06:51:06;5.72;;;5.53;;
16662;SDS011;8445;51.270;9.434;2023-08-07T06:53:32;6.05;;;5.78;;
16662;SDS011;8445;51.270;9.434;2023-08-07T06:55:58;5.60;;;5.40;;
16662;SDS011;8445;51.270;9.434;2023-08-07T06:58:24;5.82;;;5.43;;
16662;SDS011;8445;51.270;9.434;2023-08-07T07:00:50;5.97;;;5.68;;
16662;SDS011;8445;51.270;9.434;2023-08-07T07:03:15;5.50;;;5.30;;
16662;SDS011;8445;51.270;9.434;2023-08-07T07:05:41;5.30;;;5.10;;
16662;SDS011;8445;51.270;9.434;2023-08-07T07:08:08;5.53;;;5.22;;
16662;SDS011;8445;51.270;9.434;2023-08-07T07:10:34;6.00;;;5.70;;
16662;SDS011;8445;51.270;9.434;2023-08-07T07:13:02;6.28;;;5.93;;
16662;SDS011;8445;51.270;9.434;2023-08-07T07:15:30;6.97;;;6.57;;
16662;SDS011;8445;51.270;9.434;2023-08-07T07:17:56;5.80;;;5.60;;
16662;SDS011;8445;51.270;9.434;2023-08-07T07:20:22;5.93;;;5.70;;
16662;SDS011;8445;51.270;9.434;2023-08-07T07:22:48;5.88;;;5.65;;
16662;SDS011;8445;51.270;9.434;2023-08-07T07:25:14;5.95;;;5.75;;
16662;SDS011;8445;51.270;9.434;2023-08-07T07:27:40;6.40;;;6.00;;
16662;SDS011;8445;51.270;9.434;2023-08-07T07:30:06;6.07;;;5.70;;
16662;SDS011;8445;51.270;9.434;2023-08-07T07:32:33;6.20;;;5.90;;
16662;SDS011;8445;51.270;9.434;2023-08-07T07:34:58;6.65;;;6.25;;
16662;SDS011;8445;51.270;9.434;2023-08-07T07:37:24;6.78;;;6.40;;
16662;SDS011;8445;51.270;9.434;2023-08-07T07:39:50;6.80;;;6.40;;
16662;SDS011;8445;51.270;9.434;2023-08-07T07:42:16;7.10;;;6.70;;
16662;SDS011;8445;51.270;9.434;2023-08-07T07:44:42;6.35;;;6.15;;
16662;SDS011;8445;51.270;9.434;2023-08-07T07:47:08;6.05;;;5.75;;
16662;SDS011;8445;51.270;9.434;2023-08-07T07:49:34;5.90;;;5.40;;
16662;SDS011;8445;51.270;9.434;2023-08-07T07:52:00;5.60;;;5.40;;
16662;SDS011;8445;51.270;9.434;2023-08-07T07:54:27;5.70;;;5.50;;
16662;SDS011;8445;51.270;9.434;2023-08-07T07:56:56;5.88;;;5.63;;
16662;SDS011;8445;51.270;9.434;2023-08-07T07:59:22;5.65;;;5.35;;
16662;SDS011;8445;51.270;9.434;2023-08-07T08:01:48;5.80;;;5.60;;
16662;SDS011;8445;51.270;9.434;2023-08-07T08:04:14;5.80;;;5.60;;
16662;SDS011;8445;51.270;9.434;2023-08-07T08:06:40;6.35;;;6.05;;
16662;SDS011;8445;51.270;9.434;2023-08-07T08:09:06;5.88;;;5.63;;
16662;SDS011;8445;51.270;9.434;2023-08-07T08:11:42;6.13;;;5.82;;
16662;SDS011;8445;51.270;9.434;2023-08-07T08:14:11;6.10;;;5.90;;
16662;SDS011;8445;51.270;9.434;2023-08-07T08:16:56;5.97;;;5.78;;
16662;SDS011;8445;51.270;9.434;2023-08-07T08:19:25;5.63;;;5.43;;
16662;SDS011;8445;51.270;9.434;2023-08-07T08:21:51;6.10;;;5.70;;
16662;SDS011;8445;51.270;9.434;2023-08-07T08:24:27;5.63;;;5.43;;
16662;SDS011;8445;51.270;9.434;2023-08-07T08:26:56;6.10;;;5.80;;
16662;SDS011;8445;51.270;9.434;2023-08-07T08:29:32;6.10;;;5.90;;
16662;SDS011;8445;51.270;9.434;2023-08-07T08:32:05;6.68;;;6.18;;
16662;SDS011;8445;51.270;9.434;2023-08-07T08:35:21;6.50;;;6.20;;
16662;SDS011;8445;51.270;9.434;2023-08-07T08:38:56;6.13;;;5.82;;
16662;SDS011;8445;51.270;9.434;2023-08-07T08:41:25;6.25;;;6.05;;
16662;SDS011;8445;51.270;9.434;2023-08-07T08:45:30;6.70;;;6.40;;
16662;SDS011;8445;51.270;9.434;2023-08-07T08:55:49;5.57;;;5.38;;
16662;SDS011;8445;51.270;9.434;2023-08-07T09:08:01;6.63;;;6.32;;
16662;SDS011;8445;51.270;9.434;2023-08-07T09:11:43;7.43;;;7.13;;
16662;SDS011;8445;51.270;9.434;2023-08-07T09:15:09;7.25;;;6.95;;
16662;SDS011;8445;51.270;9.434;2023-08-07T09:18:42;6.40;;;6.00;;
16662;SDS011;8445;51.270;9.434;2023-08-07T09:22:18;6.38;;;6.07;;
16662;SDS011;8445;51.270;9.434;2023-08-07T09:28:55;5.63;;;5.22;;
16662;SDS011;8445;51.270;9.434;2023-08-07T09:32:35;5.70;;;5.50;;
16662;SDS011;8445;51.270;9.434;2023-08-07T09:35:57;5.90;;;5.53;;
16662;SDS011;8445;51.270;9.434;2023-08-07T09:39:03;5.55;;;5.25;;
16662;SDS011;8445;51.270;9.434;2023-08-07T09:42:19;5.68;;;5.38;;
16662;SDS011;8445;51.270;9.434;2023-08-07T09:44:54;7.90;;;7.50;;
16662;SDS011;8445;51.270;9.434;2023-08-07T09:47:20;5.78;;;5.47;;
16662;SDS011;8445;51.270;9.434;2023-08-07T09:49:47;5.53;;;5.22;;
16662;SDS011;8445;51.270;9.434;2023-08-07T09:52:19;5.40;;;5.10;;
16662;SDS011;8445;51.270;9.434;2023-08-07T09:54:45;6.00;;;5.53;;
16662;SDS011;8445;51.270;9.434;2023-08-07T09:57:11;5.50;;;5.20;;
16662;SDS011;8445;51.270;9.434;2023-08-07T09:59:41;5.38;;;5.18;;
16662;SDS011;8445;51.270;9.434;2023-08-07T10:02:07;6.20;;;5.90;;
16662;SDS011;8445;51.270;9.434;2023-08-07T10:04:38;7.18;;;6.53;;
16662;SDS011;8445;51.270;9.434;2023-08-07T10:07:08;6.70;;;6.30;;
16662;SDS011;8445;51.270;9.434;2023-08-07T10:09:37;6.55;;;6.15;;
16662;SDS011;8445;51.270;9.434;2023-08-07T10:12:07;5.85;;;5.55;;
16662;SDS011;8445;51.270;9.434;2023-08-07T10:14:34;6.00;;;5.65;;
16662;SDS011;8445;51.270;9.434;2023-08-07T10:17:02;5.97;;;5.60;;
16662;SDS011;8445;51.270;9.434;2023-08-07T10:19:29;5.88;;;5.47;;
16662;SDS011;8445;51.270;9.434;2023-08-07T10:21:55;5.88;;;5.53;;
16662;SDS011;8445;51.270;9.434;2023-08-07T10:24:22;7.40;;;7.00;;
16662;SDS011;8445;51.270;9.434;2023-08-07T10:26:49;7.30;;;6.85;;
16662;SDS011;8445;51.270;9.434;2023-08-07T10:29:17;7.40;;;6.90;;
16662;SDS011;8445;51.270;9.434;2023-08-07T10:31:47;8.18;;;7.70;;
16662;SDS011;8445;51.270;9.434;2023-08-07T10:34:15;7.30;;;6.75;;
16662;SDS011;8445;51.270;9.434;2023-08-07T10:36:41;6.57;;;6.10;;
16662;SDS011;8445;51.270;9.434;2023-08-07T10:39:08;7.00;;;6.40;;
16662;SDS011;8445;51.270;9.434;2023-08-07T10:41:46;6.30;;;5.80;;
16662;SDS011;8445;51.270;9.434;2023-08-07T10:44:21;7.28;;;6.68;;
16662;SDS011;8445;51.270;9.434;2023-08-07T10:46:53;6.65;;;6.10;;
16662;SDS011;8445;51.270;9.434;2023-08-07T10:49:31;6.88;;;6.32;;
16662;SDS011;8445;51.270;9.434;2023-08-07T10:51:58;6.43;;;6.10;;
16662;SDS011;8445;51.270;9.434;2023-08-07T10:54:27;6.15;;;5.80;;
16662;SDS011;8445;51.270;9.434;2023-08-07T10:56:53;5.72;;;5.38;;
16662;SDS011;8445;51.270;9.434;2023-08-07T10:59:20;6.72;;;6.18;;
16662;SDS011;8445;51.270;9.434;2023-08-07T11:01:54;6.25;;;5.78;;
16662;SDS011;8445;51.270;9.434;2023-08-07T11:04:21;6.45;;;5.85;;
16662;SDS011;8445;51.270;9.434;2023-08-07T11:06:50;6.25;;;5.75;;
16662;SDS011;8445;51.270;9.434;2023-08-07T11:09:17;6.35;;;6.03;;
16662;SDS011;8445;51.270;9.434;2023-08-07T11:11:44;5.38;;;5.07;;
16662;SDS011;8445;51.270;9.434;2023-08-07T11:14:12;5.85;;;5.30;;
16662;SDS011;8445;51.270;9.434;2023-08-07T11:16:44;6.35;;;5.95;;
16662;SDS011;8445;51.270;9.434;2023-08-07T11:19:16;6.97;;;6.38;;
16662;SDS011;8445;51.270;9.434;2023-08-07T11:21:44;8.48;;;7.88;;
16662;SDS011;8445;51.270;9.434;2023-08-07T11:24:12;6.50;;;6.10;;
16662;SDS011;8445;51.270;9.434;2023-08-07T11:26:39;6.28;;;5.85;;
16662;SDS011;8445;51.270;9.434;2023-08-07T11:29:05;7.00;;;6.60;;
16662;SDS011;8445;51.270;9.434;2023-08-07T11:31:32;6.82;;;6.50;;
16662;SDS011;8445;51.270;9.434;2023-08-07T11:33:58;6.93;;;6.53;;
16662;SDS011;8445;51.270;9.434;2023-08-07T11:36:25;7.13;;;6.53;;
16662;SDS011;8445;51.270;9.434;2023-08-07T11:38:51;6.50;;;6.20;;
16662;SDS011;8445;51.270;9.434;2023-08-07T11:41:17;6.78;;;6.30;;
16662;SDS011;8445;51.270;9.434;2023-08-07T11:43:44;7.38;;;6.80;;
16662;SDS011;8445;51.270;9.434;2023-08-07T11:46:12;7.53;;;6.97;;
16662;SDS011;8445;51.270;9.434;2023-08-07T11:48:41;6.30;;;5.80;;
16662;SDS011;8445;51.270;9.434;2023-08-07T11:51:09;6.60;;;6.00;;
16662;SDS011;8445;51.270;9.434;2023-08-07T11:53:36;7.22;;;6.30;;
16662;SDS011;8445;51.270;9.434;2023-08-07T11:56:07;6.50;;;6.10;;
16662;SDS011;8445;51.270;9.434;2023-08-07T11:58:41;5.95;;;5.55;;
16662;SDS011;8445;51.270;9.434;2023-08-07T12:01:12;5.97;;;5.57;;
16662;SDS011;8445;51.270;9.434;2023-08-07T12:03:42;6.93;;;6.38;;
16662;SDS011;8445;51.270;9.434;2023-08-07T12:06:33;7.55;;;7.10;;
16662;SDS011;8445;51.270;9.434;2023-08-07T12:09:00;7.05;;;6.65;;
16662;SDS011;8445;51.270;9.434;2023-08-07T12:11:28;8.48;;;7.88;;
16662;SDS011;8445;51.270;9.434;2023-08-07T12:13:55;9.48;;;8.73;;
16662;SDS011;8445;51.270;9.434;2023-08-07T12:16:21;8.05;;;7.57;;
16662;SDS011;8445;51.270;9.434;2023-08-07T12:18:48;6.72;;;6.20;;
16662;SDS011;8445;51.270;9.434;2023-08-07T12:21:19;7.47;;;5.97;;
16662;SDS011;8445;51.270;9.434;2023-08-07T12:23:51;8.23;;;7.45;;
16662;SDS011;8445;51.270;9.434;2023-08-07T12:26:21;8.63;;;8.02;;
16662;SDS011;8445;51.270;9.434;2023-08-07T12:28:47;10.05;;;9.35;;
16662;SDS011;8445;51.270;9.434;2023-08-07T12:31:13;8.68;;;7.85;;
16662;SDS011;8445;51.270;9.434;2023-08-07T12:33:39;9.80;;;9.10;;
16662;SDS011;8445;51.270;9.434;2023-08-07T12:36:04;9.48;;;8.75;;
16662;SDS011;8445;51.270;9.434;2023-08-07T12:38:31;10.25;;;9.35;;
16662;SDS011;8445;51.270;9.434;2023-08-07T12:40:57;9.27;;;8.48;;
16662;SDS011;8445;51.270;9.434;2023-08-07T12:43:23;8.15;;;7.38;;
16662;SDS011;8445;51.270;9.434;2023-08-07T12:45:49;8.68;;;7.43;;
16662;SDS011;8445;51.270;9.434;2023-08-07T12:48:15;11.07;;;10.00;;
16662;SDS011;8445;51.270;9.434;2023-08-07T12:50:41;10.57;;;9.75;;
16662;SDS011;8445;51.270;9.434;2023-08-07T12:53:07;11.02;;;9.93;;
16662;SDS011;8445;51.270;9.434;2023-08-07T12:55:33;10.38;;;9.52;;
16662;SDS011;8445;51.270;9.434;2023-08-07T12:57:59;9.88;;;9.10;;
16662;SDS011;8445;51.270;9.434;2023-08-07T13:00:25;11.05;;;10.18;;
16662;SDS011;8445;51.270;9.434;2023-08-07T13:02:52;8.80;;;8.10;;
16662;SDS011;8445;51.270;9.434;2023-08-07T13:05:19;8.27;;;7.57;;
16662;SDS011;8445;51.270;9.434;2023-08-07T13:07:47;7.85;;;7.18;;
16662;SDS011;8445;51.270;9.434;2023-08-07T13:10:14;7.88;;;7.18;;
16662;SDS011;8445;51.270;9.434;2023-08-07T13:12:43;7.68;;;6.63;;
16662;SDS011;8445;51.270;9.434;2023-08-07T13:15:12;7.55;;;6.82;;
16662;SDS011;8445;51.270;9.434;2023-08-07T13:17:43;8.07;;;7.35;;
16662;SDS011;8445;51.270;9.434;2023-08-07T13:20:10;9.35;;;7.50;;
16662;SDS011;8445;51.270;9.434;2023-08-07T13:22:39;7.60;;;7.00;;
16662;SDS011;8445;51.270;9.434;2023-08-07T13:25:07;7.97;;;7.30;;
16662;SDS011;8445;51.270;9.434;2023-08-07T13:27:35;12.18;;;11.07;;
16662;SDS011;8445;51.270;9.434;2023-08-07T13:30:02;11.13;;;10.20;;
16662;SDS011;8445;51.270;9.434;2023-08-07T13:32:30;11.45;;;10.40;;
16662;SDS011;8445;51.270;9.434;2023-08-07T13:34:57;10.57;;;8.13;;
16662;SDS011;8445;51.270;9.434;2023-08-07T13:37:23;9.07;;;7.75;;
16662;SDS011;8445;51.270;9.434;2023-08-07T13:39:49;11.10;;;10.18;;
16662;SDS011;8445;51.270;9.434;2023-08-07T13:42:17;11.43;;;10.45;;
16662;SDS011;8445;51.270;9.434;2023-08-07T13:44:44;11.68;;;10.65;;
16662;SDS011;8445;51.270;9.434;2023-08-07T13:47:10;10.63;;;9.60;;
16662;SDS011;8445;51.270;9.434;2023-08-07T13:49:37;11.15;;;9.32;;
16662;SDS011;8445;51.270;9.434;2023-08-07T13:52:04;7.35;;;6.47;;
16662;SDS011;8445;51.270;9.434;2023-08-07T13:54:30;9.68;;;8.80;;
16662;SDS011;8445;51.270;9.434;2023-08-07T13:56:56;8.55;;;7.10;;
16662;SDS011;8445;51.270;9.434;2023-08-07T13:59:22;7.88;;;6.93;;
16662;SDS011;8445;51.270;9.434;2023-08-07T14:01:48;7.70;;;7.00;;
16662;SDS011;8445;51.270;9.434;2023-08-07T14:04:14;8.02;;;7.22;;
16662;SDS011;8445;51.270;9.434;2023-08-07T14:06:41;11.65;;;9.50;;
16662;SDS011;8445;51.270;9.434;2023-08-07T14:09:08;7.68;;;7.07;;
16662;SDS011;8445;51.270;9.434;2023-08-07T14:11:34;7.97;;;7.20;;
16662;SDS011;8445;51.270;9.434;2023-08-07T14:14:01;7.28;;;6.63;;
16662;SDS011;8445;51.270;9.434;2023-08-07T14:16:27;9.25;;;8.30;;
16662;SDS011;8445;51.270;9.434;2023-08-07T14:18:53;10.10;;;7.90;;
16662;SDS011;8445;51.270;9.434;2023-08-07T14:21:19;8.30;;;7.47;;
16662;SDS011;8445;51.270;9.434;2023-08-07T14:23:46;8.70;;;8.00;;
16662;SDS011;8445;51.270;9.434;2023-08-07T14:26:13;10.65;;;9.55;;
16662;SDS011;8445;51.270;9.434;2023-08-07T14:28:39;10.27;;;9.40;;
16662;SDS011;8445;51.270;9.434;2023-08-07T14:31:06;9.18;;;8.48;;
16662;SDS011;8445;51.270;9.434;2023-08-07T14:33:34;12.30;;;7.57;;
16662;SDS011;8445;51.270;9.434;2023-08-07T14:36:00;7.95;;;7.22;;
16662;SDS011;8445;51.270;9.434;2023-08-07T14:38:27;7.68;;;7.07;;
16662;SDS011;8445;51.270;9.434;2023-08-07T14:40:54;9.73;;;7.40;;
16662;SDS011;8445;51.270;9.434;2023-08-07T14:43:21;10.90;;;9.90;;
16662;SDS011;8445;51.270;9.434;2023-08-07T14:45:48;10.23;;;9.40;;
16662;SDS011;8445;51.270;9.434;2023-08-07T14:48:14;10.65;;;9.45;;
16662;SDS011;8445;51.270;9.434;2023-08-07T14:50:41;10.20;;;9.30;;
16662;SDS011;8445;51.270;9.434;2023-08-07T14:53:07;11.60;;;9.15;;
16662;SDS011;8445;51.270;9.434;2023-08-07T14:55:33;7.95;;;7.40;;
16662;SDS011;8445;51.270;9.434;2023-08-07T14:57:59;11.23;;;9.40;;
16662;SDS011;8445;51.270;9.434;2023-08-07T15:00:25;10.48;;;9.48;;
16662;SDS011;8445;51.270;9.434;2023-08-07T15:02:51;8.40;;;7.80;;
16662;SDS011;8445;51.270;9.434;2023-08-07T15:05:17;10.52;;;9.77;;
16662;SDS011;8445;51.270;9.434;2023-08-07T15:07:44;9.65;;;8.85;;
16662;SDS011;8445;51.270;9.434;2023-08-07T15:10:10;9.95;;;9.15;;
16662;SDS011;8445;51.270;9.434;2023-08-07T15:12:36;10.13;;;9.43;;
16662;SDS011;8445;51.270;9.434;2023-08-07T15:15:02;10.40;;;9.55;;
16662;SDS011;8445;51.270;9.434;2023-08-07T15:17:30;9.88;;;9.25;;
16662;SDS011;8445;51.270;9.434;2023-08-07T15:19:56;10.52;;;9.57;;
16662;SDS011;8445;51.270;9.434;2023-08-07T15:22:22;10.07;;;9.10;;
16662;SDS011;8445;51.270;9.434;2023-08-07T15:24:48;11.38;;;8.60;;
16662;SDS011;8445;51.270;9.434;2023-08-07T15:27:15;9.18;;;8.45;;
16662;SDS011;8445;51.270;9.434;2023-08-07T15:29:42;10.02;;;9.38;;
16662;SDS011;8445;51.270;9.434;2023-08-07T15:32:11;7.30;;;6.80;;
16662;SDS011;8445;51.270;9.434;2023-08-07T15:34:43;7.70;;;7.10;;
16662;SDS011;8445;51.270;9.434;2023-08-07T15:37:13;7.80;;;7.18;;
16662;SDS011;8445;51.270;9.434;2023-08-07T15:39:39;8.40;;;7.55;;
16662;SDS011;8445;51.270;9.434;2023-08-07T15:42:05;7.72;;;7.07;;